Charleston, WV

9:40 AM EDT on October 24, 2014 (GMT -0400)
Point Pleasant | Change Station
CLOSE
Current Station
Airport
Location: Point Pleasant,
Elevation: 643 ft
Nearby Weather Stations

Elev 643 ft 38.91 °N, 82.10 °W | Updated 5 minutes ago

Fog
Fog
43 °F
Feels Like 43 °F
N
0
Wind Variable Wind from North

Today
High -- | Low -- °F
--% Chance of Precip.
Yesterday
High -- | Low -- °F
Precip. -- in
7:44 AM 6:36 PM
New Moon, 0% visible
Pressure 30.16 in
Visibility 5.0 miles
Clouds Overcast 100 ft
Dew Point 43 °F
Humidity 100%
Rainfall 0.00 in
Snow Depth Not available.
UV 0 out of 12
Pollen .40 out of 12
Air Quality Not available.
Flu Activity Sporadic
METAR K3I2 241335Z AUTO 00000KT 5SM BR OVC001 06/06 A3016 RMK AO2

More Conditions Fewer Conditions

Pressure 30.16 in
Visibility 5.0 miles
Clouds Overcast 100 ft
Dew Point 43 °F
Humidity 100%
Rainfall 0.00 in
Snow Depth Not available.
UV 0 out of 12
Pollen .40 out of 12
Air Quality Not available.
Flu Activity Sporadic
METAR K3I2 241335Z AUTO 00000KT 5SM BR OVC001 06/06 A3016 RMK AO2

More Conditions Fewer Conditions

10-Day Weather Forecast

Almanac

Astronomy

Oct. 24, 2014 Rise Set
Actual Time 7:44 AM EDT 6:36 PM EDT
Civil Twilight 7:17 AM EDT 7:03 PM EDT
Nautical Twilight 6:46 AM EDT 7:34 PM EDT
Astronomical Twilight 6:15 AM EDT 8:04 PM EDT
Moon 8:21 AM EDT 7:16 PM EDT
Length of Visible Light 11h 45m
Length of Day
10h 52m
Tomorrow will be 2m 18s shorter.
New Moon, 0% of the Moon is Illuminated
Today
New Moon
Oct 30
First Quarter
Nov 6
Full
Nov 14
Last Quarter
Nov 22
New

Today's Extremes

State Highs State Lows

Community

WunderPhotos

Upload Photos

1,764,551 photos uploaded!

WunderBlogs® & News

Nearby

Snow Depth

Station Depth Elevation
No new snow has been reported.

Earthquake Activity

City Distance Mag. Time & Date
No recent earthquake activity has been reported nearby.
Minimum magnitude displayed is 2.5.

Coastal Water Temperatures

Place Temperature
No Stations Reporting

Nearby Weather Stations